Time;durP1;ratioP1;P1;durP2;ratioP2;P2;SDS_P1;SDS_P2;PMS_P1;PMS_P2;Temp;Humidity;BMP_temperature;BMP_pressure;BME280_temperature;BME280_humidity;BME280_pressure;Samples;Min_cycle;Max_cycle;Signal;HPM_P1;HPM_P2
2023/02/27 00:03:36;;;;;;;;;;;2.00;96.10;;;;;;8386886;28;20397;-71
2023/02/27 00:07:38;;;;;;;;;;;2.00;96.30;;;;;;8372549;28;19931;-71
2023/02/27 00:11:41;;;;;;;;;;;2.10;96.20;;;;;;8383628;28;20426;-71
2023/02/27 00:15:46;;;;;;;;;;;2.10;96.10;;;;;;8389029;28;19924;-71
2023/02/27 00:19:48;;;;;;;;;;;2.10;96.00;;;;;;8376548;28;19947;-71
2023/02/27 00:23:50;;;;;;;;;;;2.00;95.80;;;;;;8391827;28;19924;-71
2023/02/27 00:27:52;;;;;;;;;;;1.90;95.80;;;;;;8391428;28;19971;-71
2023/02/27 00:31:54;;;;;;;;;;;1.80;95.80;;;;;;8392297;28;20384;-71
2023/02/27 00:35:57;;;;;;;;;;;1.70;95.50;;;;;;8389627;28;20277;-71
2023/02/27 00:39:58;;;;;;;;;;;1.60;95.80;;;;;;8381050;28;19972;-71
2023/02/27 00:44:00;;;;;;;;;;;1.60;96.00;;;;;;8363825;28;19925;-71
2023/02/27 00:48:02;;;;;;;;;;;1.60;95.80;;;;;;8390671;28;19925;-71
2023/02/27 00:52:04;;;;;;;;;;;1.50;95.40;;;;;;8399818;28;20358;-71
2023/02/27 00:56:05;;;;;;;;;;;1.40;95.40;;;;;;8389140;28;19928;-70
2023/02/27 01:00:08;;;;;;;;;;;1.40;95.30;;;;;;8376173;28;20006;-70
2023/02/27 01:04:10;;;;;;;;;;;1.20;95.30;;;;;;8390397;28;19924;-70
2023/02/27 01:08:11;;;;;;;;;;;1.20;95.20;;;;;;8386225;28;20007;-70
2023/02/27 01:12:13;;;;;;;;;;;1.10;95.20;;;;;;8392515;28;20482;-70
2023/02/27 01:16:15;;;;;;;;;;;1.00;95.10;;;;;;8386144;28;19924;-70
2023/02/27 01:20:16;;;;;;;;;;;0.90;95.30;;;;;;8384590;28;19978;-71
2023/02/27 01:24:18;;;;;;;;;;;0.90;95.30;;;;;;8390216;28;19924;-71
2023/02/27 01:28:20;;;;;;;;;;;0.90;95.30;;;;;;8388924;28;19928;-71
2023/02/27 01:32:21;;;;;;;;;;;0.80;95.10;;;;;;8388502;28;19925;-71
2023/02/27 01:36:23;;;;;;;;;;;0.80;94.90;;;;;;8374337;28;19925;-71
2023/02/27 01:40:25;;;;;;;;;;;0.70;95.20;;;;;;8385108;28;19925;-71
2023/02/27 01:44:28;;;;;;;;;;;0.70;95.40;;;;;;8394899;28;20024;-71
2023/02/27 01:48:32;;;;;;;;;;;0.70;95.20;;;;;;8381077;28;19972;-71
2023/02/27 01:52:35;;;;;;;;;;;0.60;94.80;;;;;;8380998;28;19925;-71
2023/02/27 01:56:37;;;;;;;;;;;0.50;94.80;;;;;;8366152;28;19932;-71
2023/02/27 02:00:39;;;;;;;;;;;0.40;95.00;;;;;;8385103;28;20253;-71
2023/02/27 02:04:41;;;;;;;;;;;0.40;95.30;;;;;;8370267;28;19932;-71
2023/02/27 02:08:44;;;;;;;;;;;0.40;95.40;;;;;;8381033;28;19951;-71
2023/02/27 02:12:46;;;;;;;;;;;0.30;95.00;;;;;;8386446;28;19929;-71
2023/02/27 02:16:47;;;;;;;;;;;0.20;95.10;;;;;;8380717;28;19925;-71
2023/02/27 02:20:55;;;;;;;;;;;0.20;95.30;;;;;;8389364;28;19925;-71
2023/02/27 02:25:20;;;;;;;;;;;0.10;95.10;;;;;;8398168;28;19931;-71
2023/02/27 02:29:51;;;;;;;;;;;0.10;94.90;;;;;;8390297;28;20253;-71
2023/02/27 02:34:08;;;;;;;;;;;0.00;95.00;;;;;;8385687;28;19935;-71
2023/02/27 02:38:13;;;;;;;;;;;0.00;95.00;;;;;;8389948;28;19940;-71
2023/02/27 02:42:44;;;;;;;;;;;0.00;95.20;;;;;;8389751;28;20357;-71
2023/02/27 02:46:52;;;;;;;;;;;0.00;95.20;;;;;;8381619;28;19928;-71
2023/02/27 02:50:53;;;;;;;;;;;0.00;94.90;;;;;;8396955;28;20380;-71
2023/02/27 02:55:02;;;;;;;;;;;-0.10;95.00;;;;;;8385017;28;19970;-71
2023/02/27 02:59:12;;;;;;;;;;;-0.10;95.00;;;;;;8375563;28;19925;-71
2023/02/27 03:03:34;;;;;;;;;;;-0.20;95.00;;;;;;8396245;28;19983;-71
2023/02/27 03:07:43;;;;;;;;;;;-0.20;95.60;;;;;;8388246;28;19936;-71
2023/02/27 03:11:47;;;;;;;;;;;-0.20;95.60;;;;;;8393653;28;19931;-71
2023/02/27 03:16:01;;;;;;;;;;;-0.10;95.30;;;;;;8390220;28;20000;-71
2023/02/27 03:20:05;;;;;;;;;;;-0.10;95.00;;;;;;8388883;28;19931;-71
2023/02/27 03:24:11;;;;;;;;;;;-0.20;94.90;;;;;;8374094;28;19940;-71
2023/02/27 03:28:15;;;;;;;;;;;-0.30;94.90;;;;;;8384328;28;19924;-71
2023/02/27 03:32:22;;;;;;;;;;;-0.30;95.20;;;;;;8387940;28;20268;-71
2023/02/27 03:36:39;;;;;;;;;;;-0.30;95.30;;;;;;8388293;28;19924;-71
2023/02/27 03:40:50;;;;;;;;;;;-0.30;95.50;;;;;;8388280;28;19933;-71
2023/02/27 03:44:56;;;;;;;;;;;-0.30;95.20;;;;;;8388180;28;19971;-71
2023/02/27 03:48:58;;;;;;;;;;;-0.30;95.30;;;;;;8393136;28;19983;-71
2023/02/27 03:53:02;;;;;;;;;;;-0.40;95.30;;;;;;8373268;28;19966;-71
2023/02/27 03:57:05;;;;;;;;;;;-0.40;95.30;;;;;;8388827;28;19924;-70
2023/02/27 04:01:06;;;;;;;;;;;-0.50;95.10;;;;;;8391158;28;20042;-71
2023/02/27 04:05:08;;;;;;;;;;;-0.50;95.30;;;;;;8393379;28;19932;-71
2023/02/27 04:09:20;;;;;;;;;;;-0.60;95.20;;;;;;8394932;28;19951;-71
2023/02/27 04:13:27;;;;;;;;;;;-0.60;95.30;;;;;;8386222;28;19947;-71
2023/02/27 04:17:31;;;;;;;;;;;-0.60;95.40;;;;;;8388869;28;19924;-71
2023/02/27 04:21:38;;;;;;;;;;;-0.60;95.20;;;;;;8395537;28;19924;-71
2023/02/27 04:25:52;;;;;;;;;;;-0.70;95.00;;;;;;8380540;28;19924;-71
2023/02/27 04:29:58;;;;;;;;;;;-0.70;95.00;;;;;;8390713;28;20023;-71
2023/02/27 04:34:04;;;;;;;;;;;-0.70;94.80;;;;;;8391263;28;19924;-71
2023/02/27 04:38:06;;;;;;;;;;;-0.80;95.50;;;;;;8387275;28;20295;-71
2023/02/27 04:42:13;;;;;;;;;;;-0.80;95.30;;;;;;8388216;28;19983;-71
2023/02/27 04:46:16;;;;;;;;;;;-0.80;95.10;;;;;;8391871;28;19968;-71
2023/02/27 05:00:26;;;;;;;;;;;-0.90;95.10;;;;;;8381981;28;19986;-71
2023/02/27 05:04:30;;;;;;;;;;;-1.00;95.30;;;;;;8373919;28;19939;-71
2023/02/27 05:08:35;;;;;;;;;;;-1.00;95.10;;;;;;8387481;28;19933;-71
2023/02/27 05:12:40;;;;;;;;;;;-1.00;95.20;;;;;;8373175;28;19928;-71
2023/02/27 05:16:47;;;;;;;;;;;-1.00;95.30;;;;;;8389177;28;19925;-71
2023/02/27 05:20:49;;;;;;;;;;;-1.00;95.30;;;;;;8373584;28;19947;-71
2023/02/27 05:25:17;;;;;;;;;;;-1.00;95.60;;;;;;8367839;28;19935;-71
2023/02/27 05:29:25;;;;;;;;;;;-1.00;95.40;;;;;;8354902;28;19966;-71
2023/02/27 05:33:27;;;;;;;;;;;-1.10;95.60;;;;;;8391138;28;19924;-71
2023/02/27 05:37:38;;;;;;;;;;;-1.10;95.30;;;;;;8386103;28;21423;-71
2023/02/27 05:41:46;;;;;;;;;;;-1.10;95.30;;;;;;8381055;28;19933;-71
2023/02/27 05:45:49;;;;;;;;;;;-1.10;95.60;;;;;;8385121;28;19928;-71
2023/02/27 05:49:53;;;;;;;;;;;-1.10;95.50;;;;;;8386739;28;20372;-71
2023/02/27 05:54:01;;;;;;;;;;;-1.20;95.50;;;;;;8399016;28;20374;-71
2023/02/27 05:58:25;;;;;;;;;;;-1.20;95.70;;;;;;8387037;28;19924;-71
2023/02/27 06:02:26;;;;;;;;;;;-1.20;95.40;;;;;;8371584;28;19982;-71
2023/02/27 06:06:28;;;;;;;;;;;-1.20;95.50;;;;;;8382608;28;20640;-71
2023/02/27 06:10:30;;;;;;;;;;;-1.20;95.50;;;;;;8385982;28;19940;-71
2023/02/27 06:14:32;;;;;;;;;;;-1.20;95.60;;;;;;8364820;28;19925;-70
2023/02/27 06:18:33;;;;;;;;;;;-1.20;96.10;;;;;;8373517;28;20291;-70
2023/02/27 06:22:35;;;;;;;;;;;-1.10;96.30;;;;;;8383119;28;19971;-71
2023/02/27 06:26:37;;;;;;;;;;;-1.10;96.60;;;;;;8385826;28;19981;-70
2023/02/27 06:30:38;;;;;;;;;;;-1.10;96.70;;;;;;8388174;28;19924;-70
2023/02/27 06:34:40;;;;;;;;;;;-1.00;96.60;;;;;;8391867;28;20406;-70
2023/02/27 06:38:41;;;;;;;;;;;-1.00;96.60;;;;;;8388170;28;19935;-70
2023/02/27 06:42:43;;;;;;;;;;;-1.00;96.40;;;;;;8385638;28;20016;-71
2023/02/27 06:46:45;;;;;;;;;;;-1.00;96.50;;;;;;8383719;28;20218;-71
2023/02/27 06:50:54;;;;;;;;;;;-1.00;96.80;;;;;;8391386;28;20387;-70
2023/02/27 06:54:55;;;;;;;;;;;-1.00;96.60;;;;;;8362211;28;19925;-71
2023/02/27 06:58:57;;;;;;;;;;;-1.00;96.70;;;;;;8373296;28;19975;-71
2023/02/27 07:03:03;;;;;;;;;;;-0.90;96.40;;;;;;8381306;28;19986;-71
2023/02/27 07:07:04;;;;;;;;;;;-0.90;96.10;;;;;;8388957;28;19975;-71
2023/02/27 07:11:26;;;;;;;;;;;-0.80;96.40;;;;;;8389222;28;20368;-71
2023/02/27 07:25:34;;;;;;;;;;;-0.30;97.20;;;;;;8389316;28;19919;-71
2023/02/27 07:29:36;;;;;;;;;;;-0.10;97.50;;;;;;8404974;28;19964;-71
2023/02/27 07:33:38;;;;;;;;;;;0.10;98.00;;;;;;8394324;28;20443;-71
2023/02/27 07:37:39;;;;;;;;;;;0.20;98.40;;;;;;8390115;28;19924;-71
2023/02/27 07:41:41;;;;;;;;;;;0.40;99.10;;;;;;8389463;28;19978;-71
2023/02/27 07:45:43;;;;;;;;;;;0.60;98.50;;;;;;8397112;28;19925;-71
2023/02/27 07:49:45;;;;;;;;;;;0.70;99.60;;;;;;8393794;28;19929;-71
2023/02/27 07:53:46;;;;;;;;;;;0.90;99.30;;;;;;8392108;28;19972;-71
2023/02/27 07:57:48;;;;;;;;;;;1.00;99.60;;;;;;8393633;28;20292;-71
2023/02/27 08:01:50;;;;;;;;;;;1.20;99.90;;;;;;8385480;28;20392;-71
2023/02/27 08:05:51;;;;;;;;;;;1.40;99.90;;;;;;8377618;28;19931;-71
2023/02/27 08:09:53;;;;;;;;;;;1.50;99.90;;;;;;8386904;28;20344;-71
2023/02/27 08:13:54;;;;;;;;;;;1.70;99.90;;;;;;8374844;28;19960;-71
2023/02/27 08:18:01;;;;;;;;;;;1.80;99.90;;;;;;8374461;28;19924;-71
2023/02/27 08:22:03;;;;;;;;;;;2.00;99.90;;;;;;8392138;28;19924;-71
2023/02/27 08:26:04;;;;;;;;;;;2.20;99.90;;;;;;8390763;28;20016;-71
2023/02/27 08:30:07;;;;;;;;;;;2.30;99.90;;;;;;8388824;28;20007;-71
2023/02/27 08:34:09;;;;;;;;;;;2.50;99.90;;;;;;8395317;28;19924;-72
2023/02/27 08:38:11;;;;;;;;;;;2.70;99.90;;;;;;8391019;28;20003;-71
2023/02/27 08:42:14;;;;;;;;;;;2.80;99.90;;;;;;8387540;28;19928;-71
2023/02/27 08:46:15;;;;;;;;;;;3.00;99.90;;;;;;8385054;28;19935;-71
2023/02/27 08:55:42;;;;;;;;;;;3.30;99.90;;;;;;8380234;28;19950;-72
2023/02/27 08:59:44;;;;;;;;;;;3.50;99.90;;;;;;8388435;28;20390;-71
2023/02/27 09:03:45;;;;;;;;;;;3.70;99.90;;;;;;8393301;28;20287;-71
2023/02/27 09:07:47;;;;;;;;;;;3.90;99.90;;;;;;8393074;28;19924;-71
2023/02/27 09:11:49;;;;;;;;;;;4.00;99.90;;;;;;8368239;28;19925;-71
2023/02/27 09:15:51;;;;;;;;;;;4.20;99.90;;;;;;8386267;28;20007;-71
2023/02/27 09:19:53;;;;;;;;;;;4.40;99.90;;;;;;8375810;28;19936;-71
2023/02/27 09:23:57;;;;;;;;;;;4.50;99.90;;;;;;8392969;28;19928;-72
2023/02/27 09:28:05;;;;;;;;;;;4.70;99.90;;;;;;8388755;28;20418;-72
2023/02/27 09:32:07;;;;;;;;;;;4.80;99.90;;;;;;8375297;28;20311;-72
2023/02/27 09:36:09;;;;;;;;;;;4.90;99.90;;;;;;8386781;28;19935;-71
2023/02/27 09:40:19;;;;;;;;;;;5.10;99.90;;;;;;8394987;28;20412;-71
2023/02/27 09:44:30;;;;;;;;;;;5.20;99.90;;;;;;8393961;28;19924;-71
2023/02/27 09:48:49;;;;;;;;;;;5.40;99.90;;;;;;8388153;28;19928;-71
2023/02/27 09:52:51;;;;;;;;;;;5.70;99.90;;;;;;8377753;28;19925;-71
2023/02/27 09:57:00;;;;;;;;;;;6.10;99.90;;;;;;8380484;28;20008;-71
2023/02/27 10:01:22;;;;;;;;;;;6.50;99.90;;;;;;8385532;28;20329;-71
2023/02/27 10:05:49;;;;;;;;;;;6.90;99.90;;;;;;8364182;28;19932;-71
2023/02/27 10:10:09;;;;;;;;;;;7.40;99.90;;;;;;8382532;28;19924;-72
2023/02/27 10:14:29;;;;;;;;;;;7.80;99.90;;;;;;8386919;28;19924;-71
2023/02/27 10:23:39;;;;;;;;;;;8.50;99.90;;;;;;8388421;28;20378;-71
2023/02/27 10:27:42;;;;;;;;;;;8.70;99.90;;;;;;8401141;28;19925;-71
2023/02/27 10:31:45;;;;;;;;;;;8.80;99.90;;;;;;8389971;28;19928;-71
2023/02/27 10:35:46;;;;;;;;;;;9.00;99.90;;;;;;8387564;28;19929;-71
2023/02/27 10:39:52;;;;;;;;;;;9.30;99.90;;;;;;8370744;28;19985;-71
2023/02/27 10:43:56;;;;;;;;;;;9.80;99.90;;;;;;8386575;28;19929;-72
2023/02/27 10:48:00;;;;;;;;;;;10.40;99.90;;;;;;8385872;28;19925;-71
2023/02/27 10:52:07;;;;;;;;;;;10.60;99.90;;;;;;8390758;28;19924;-71
2023/02/27 10:56:14;;;;;;;;;;;10.00;99.90;;;;;;8373151;28;19924;-71
2023/02/27 11:00:37;;;;;;;;;;;9.60;99.90;;;;;;8377408;28;19925;-71
2023/02/27 11:04:39;;;;;;;;;;;9.30;99.90;;;;;;8391541;28;19938;-71
2023/02/27 11:08:40;;;;;;;;;;;8.90;99.90;;;;;;8393701;28;20494;-71
2023/02/27 11:12:57;;;;;;;;;;;8.50;99.90;;;;;;8378762;28;20300;-71
2023/02/27 11:17:00;;;;;;;;;;;8.10;99.90;;;;;;8394116;28;20368;-71
2023/02/27 11:21:11;;;;;;;;;;;7.90;99.90;;;;;;8393368;28;20376;-71
2023/02/27 11:25:20;;;;;;;;;;;7.70;99.90;;;;;;8388091;28;19936;-71
2023/02/27 11:29:22;;;;;;;;;;;8.10;99.90;;;;;;8373413;28;20019;-71
2023/02/27 11:33:25;;;;;;;;;;;9.10;99.90;;;;;;8388894;28;20003;-71
2023/02/27 11:37:32;;;;;;;;;;;9.60;99.90;;;;;;8384310;28;20015;-71
2023/02/27 11:41:34;;;;;;;;;;;9.80;99.90;;;;;;8365324;28;19925;-71
2023/02/27 11:45:38;;;;;;;;;;;10.70;99.90;;;;;;8365739;28;19931;-71
2023/02/27 11:50:08;;;;;;;;;;;11.70;99.90;;;;;;8365763;28;19928;-71
2023/02/27 12:04:22;;;;;;;;;;;13.90;99.90;;;;;;8365549;28;19923;-71
2023/02/27 12:08:36;;;;;;;;;;;14.30;99.90;;;;;;8369031;28;20296;-71
2023/02/27 12:12:44;;;;;;;;;;;14.50;99.90;;;;;;8365125;28;19948;-72
2023/02/27 12:16:46;;;;;;;;;;;15.10;99.90;;;;;;8366446;28;20096;-71
2023/02/27 12:20:56;;;;;;;;;;;15.50;99.90;;;;;;8362298;28;20677;-72
2023/02/27 12:24:58;;;;;;;;;;;15.60;99.90;;;;;;8364843;28;19975;-71
2023/02/27 12:29:04;;;;;;;;;;;15.70;99.90;;;;;;8349015;28;19931;-72
2023/02/27 12:33:12;;;;;;;;;;;15.80;99.90;;;;;;8369217;28;19986;-72
2023/02/27 12:37:16;;;;;;;;;;;16.00;99.90;;;;;;8365641;28;19935;-72
2023/02/27 12:41:26;;;;;;;;;;;15.90;99.90;;;;;;8376938;28;20015;-71
2023/02/27 12:45:38;;;;;;;;;;;15.80;99.90;;;;;;8362453;28;19933;-71
2023/02/27 12:49:55;;;;;;;;;;;15.70;99.90;;;;;;8372949;28;19924;-71
2023/02/27 12:54:08;;;;;;;;;;;15.60;99.90;;;;;;8364312;28;19929;-72
2023/02/27 12:58:13;;;;;;;;;;;15.50;99.90;;;;;;8364952;28;19929;-71
2023/02/27 13:02:20;;;;;;;;;;;15.70;99.90;;;;;;8363425;28;19978;-71
2023/02/27 13:06:28;;;;;;;;;;;15.70;99.90;;;;;;8361012;28;19988;-71
2023/02/27 13:10:32;;;;;;;;;;;15.90;99.90;;;;;;8360767;28;19925;-71
2023/02/27 13:14:44;;;;;;;;;;;15.30;99.90;;;;;;8365624;28;19929;-71
2023/02/27 13:18:49;;;;;;;;;;;14.80;99.90;;;;;;8366805;28;19932;-71
2023/02/27 13:23:05;;;;;;;;;;;14.20;99.90;;;;;;8348429;28;20291;-71
2023/02/27 13:27:27;;;;;;;;;;;13.50;99.90;;;;;;8360657;28;19932;-71
2023/02/27 13:31:36;;;;;;;;;;;12.80;99.90;;;;;;8364793;28;19944;-71
2023/02/27 13:36:02;;;;;;;;;;;12.20;99.90;;;;;;8363516;28;19924;-71
2023/02/27 13:40:24;;;;;;;;;;;11.80;99.90;;;;;;8348561;28;19988;-71
2023/02/27 13:44:27;;;;;;;;;;;11.50;99.90;;;;;;8352271;28;19975;-71
2023/02/27 13:48:32;;;;;;;;;;;11.10;99.90;;;;;;8365814;28;19972;-71
2023/02/27 13:52:35;;;;;;;;;;;11.20;99.80;;;;;;8365206;28;19936;-71
2023/02/27 13:56:36;;;;;;;;;;;11.50;99.90;;;;;;8348420;28;20011;-72
2023/02/27 14:00:38;;;;;;;;;;;11.70;99.90;;;;;;8363983;28;20310;-71
2023/02/27 14:04:48;;;;;;;;;;;11.70;99.80;;;;;;8367605;28;20448;-71
2023/02/27 14:08:51;;;;;;;;;;;11.30;98.90;;;;;;8377879;28;19940;-71
2023/02/27 14:12:56;;;;;;;;;;;10.90;98.40;;;;;;8352462;28;19928;-71
2023/02/27 14:16:59;;;;;;;;;;;10.50;98.00;;;;;;8362851;28;20002;-71
2023/02/27 14:21:01;;;;;;;;;;;10.40;98.20;;;;;;8362832;28;19931;-71
2023/02/27 14:25:24;;;;;;;;;;;10.70;98.60;;;;;;8365697;28;20012;-71
2023/02/27 14:29:29;;;;;;;;;;;11.10;98.60;;;;;;8368899;28;20360;-71
2023/02/27 14:33:42;;;;;;;;;;;11.40;97.80;;;;;;8372290;28;20598;-71
2023/02/27 14:37:44;;;;;;;;;;;11.80;98.40;;;;;;8371443;28;19928;-71
2023/02/27 14:46:51;;;;;;;;;;;12.70;98.20;;;;;;8370639;28;19947;-71
2023/02/27 14:50:53;;;;;;;;;;;13.90;99.90;;;;;;8376027;28;19925;-71
2023/02/27 14:55:05;;;;;;;;;;;14.60;99.90;;;;;;8363286;28;19967;-71
2023/02/27 14:59:19;;;;;;;;;;;15.30;99.90;;;;;;8370273;28;19938;-71
2023/02/27 15:03:22;;;;;;;;;;;15.30;99.90;;;;;;8368091;28;19935;-71
2023/02/27 15:07:25;;;;;;;;;;;15.90;99.90;;;;;;8348380;28;20619;-71
2023/02/27 15:11:27;;;;;;;;;;;16.80;99.90;;;;;;8365574;28;19925;-71
2023/02/27 15:15:30;;;;;;;;;;;17.30;99.90;;;;;;8366655;28;20687;-71
2023/02/27 15:19:32;;;;;;;;;;;16.70;99.90;;;;;;8375967;28;19932;-71
2023/02/27 15:23:34;;;;;;;;;;;15.40;99.00;;;;;;8371667;28;19947;-71
2023/02/27 15:33:07;;;;;;;;;;;13.10;97.40;;;;;;8366443;28;19971;-71
2023/02/27 15:53:04;;;;;;;;;;;13.70;98.30;;;;;;8366543;28;20346;-71
2023/02/27 15:57:06;;;;;;;;;;;14.50;98.40;;;;;;8368454;28;20385;-71
2023/02/27 16:01:17;;;;;;;;;;;15.10;98.00;;;;;;8367763;28;20047;-71
2023/02/27 16:05:29;;;;;;;;;;;14.80;96.50;;;;;;8370195;28;19933;-71
2023/02/27 16:09:32;;;;;;;;;;;13.80;95.20;;;;;;8362910;28;20335;-71
2023/02/27 16:13:37;;;;;;;;;;;12.80;94.60;;;;;;8354268;28;19928;-71
2023/02/27 16:17:50;;;;;;;;;;;12.30;94.30;;;;;;8368190;28;20020;-71
2023/02/27 16:22:02;;;;;;;;;;;12.40;94.90;;;;;;8369881;28;19935;-71
2023/02/27 16:26:07;;;;;;;;;;;12.40;94.30;;;;;;8345990;28;19960;-71
2023/02/27 16:30:10;;;;;;;;;;;12.30;93.80;;;;;;8366908;28;19952;-71
2023/02/27 16:34:12;;;;;;;;;;;12.00;93.40;;;;;;8357795;28;20355;-71
2023/02/27 16:38:15;;;;;;;;;;;11.80;93.00;;;;;;8369197;28;19940;-71
2023/02/27 16:42:17;;;;;;;;;;;11.60;92.70;;;;;;8383858;28;19932;-71
2023/02/27 16:46:19;;;;;;;;;;;11.30;92.20;;;;;;8366637;28;19981;-71
2023/02/27 16:50:22;;;;;;;;;;;10.90;91.80;;;;;;8379777;28;19936;-71
2023/02/27 16:54:27;;;;;;;;;;;10.40;91.50;;;;;;8356948;28;19925;-71
2023/02/27 16:58:29;;;;;;;;;;;10.00;91.20;;;;;;8364241;28;19964;-71
2023/02/27 17:02:30;;;;;;;;;;;9.80;91.60;;;;;;8368957;28;20686;-71
2023/02/27 17:06:32;;;;;;;;;;;9.50;91.30;;;;;;8369361;28;19929;-71
2023/02/27 17:10:33;;;;;;;;;;;9.30;91.20;;;;;;8368751;28;19972;-71
2023/02/27 17:19:38;;;;;;;;;;;8.90;90.80;;;;;;8360108;28;19920;-70
2023/02/27 17:28:58;;;;;;;;;;;8.60;90.60;;;;;;8367241;28;20015;-70
2023/02/27 17:33:00;;;;;;;;;;;8.40;90.50;;;;;;8363655;28;19931;-70
2023/02/27 17:37:04;;;;;;;;;;;8.30;90.30;;;;;;8376747;28;19924;-71
2023/02/27 17:41:06;;;;;;;;;;;8.20;90.20;;;;;;8359212;28;20035;-71
2023/02/27 17:45:08;;;;;;;;;;;8.10;90.00;;;;;;8361386;28;20377;-71
2023/02/27 17:49:10;;;;;;;;;;;8.00;90.00;;;;;;8364018;28;19928;-71
2023/02/27 17:53:13;;;;;;;;;;;8.00;89.70;;;;;;8366803;28;19939;-71
2023/02/27 17:57:15;;;;;;;;;;;7.90;89.60;;;;;;8358028;28;19967;-71
2023/02/27 18:01:20;;;;;;;;;;;7.80;89.60;;;;;;8363818;28;20284;-71
2023/02/27 18:05:22;;;;;;;;;;;7.80;89.30;;;;;;8379242;28;20310;-71
2023/02/27 18:09:23;;;;;;;;;;;7.60;88.80;;;;;;8374928;28;20011;-71
2023/02/27 18:13:26;;;;;;;;;;;7.50;88.90;;;;;;8361403;28;19979;-71
2023/02/27 18:17:27;;;;;;;;;;;7.30;88.90;;;;;;8379951;28;19935;-71
2023/02/27 18:21:29;;;;;;;;;;;7.20;88.60;;;;;;8377862;28;19963;-71
2023/02/27 18:25:31;;;;;;;;;;;7.10;88.40;;;;;;8356910;28;20280;-71
2023/02/27 18:29:33;;;;;;;;;;;7.00;88.30;;;;;;8367927;28;20020;-71
2023/02/27 18:33:34;;;;;;;;;;;6.90;88.30;;;;;;8370852;28;19935;-70
2023/02/27 18:37:36;;;;;;;;;;;6.80;88.80;;;;;;8351670;28;19929;-71
2023/02/27 18:41:38;;;;;;;;;;;6.70;88.20;;;;;;8366535;28;19960;-71
2023/02/27 18:45:40;;;;;;;;;;;6.50;87.80;;;;;;8359964;28;19925;-71
2023/02/27 18:49:42;;;;;;;;;;;6.30;87.80;;;;;;8363002;28;20047;-71
2023/02/27 18:53:46;;;;;;;;;;;6.20;87.80;;;;;;8366711;28;19987;-70
2023/02/27 18:57:49;;;;;;;;;;;6.00;87.80;;;;;;8377187;28;19925;-71
2023/02/27 19:01:51;;;;;;;;;;;5.90;87.80;;;;;;8366302;28;19925;-71
2023/02/27 19:05:53;;;;;;;;;;;5.80;87.60;;;;;;8360022;28;20633;-71
2023/02/27 19:09:55;;;;;;;;;;;5.60;87.50;;;;;;8374628;28;20011;-71
2023/02/27 19:13:56;;;;;;;;;;;5.50;87.50;;;;;;8366892;28;19924;-71
2023/02/27 19:27:59;;;;;;;;;;;5.10;87.50;;;;;;8368010;28;20332;-71
2023/02/27 19:32:01;;;;;;;;;;;4.90;87.60;;;;;;8369027;28;19983;-71
2023/02/27 19:41:13;;;;;;;;;;;5.00;88.00;;;;;;8356408;28;20335;-71
2023/02/27 19:45:14;;;;;;;;;;;5.00;88.30;;;;;;8366380;28;19933;-71
2023/02/27 19:49:16;;;;;;;;;;;5.00;88.70;;;;;;8361642;28;19931;-71
2023/02/27 19:53:18;;;;;;;;;;;5.10;88.90;;;;;;8370587;28;19932;-71
2023/02/27 19:57:20;;;;;;;;;;;5.20;89.30;;;;;;8364956;28;20266;-71
2023/02/27 20:01:23;;;;;;;;;;;5.30;89.60;;;;;;8365935;28;19947;-71
2023/02/27 20:05:25;;;;;;;;;;;5.40;90.00;;;;;;8369279;28;19995;-71
2023/02/27 20:14:31;;;;;;;;;;;5.50;90.30;;;;;;8366702;28;19930;-71
2023/02/27 20:18:33;;;;;;;;;;;5.50;90.60;;;;;;8367804;28;20376;-71
2023/02/27 20:22:36;;;;;;;;;;;5.60;90.50;;;;;;8366713;28;20015;-71
2023/02/27 20:26:43;;;;;;;;;;;5.60;90.50;;;;;;8369152;28;20699;-71
2023/02/27 20:30:45;;;;;;;;;;;5.70;90.60;;;;;;8365737;28;19925;-71
2023/02/27 20:34:47;;;;;;;;;;;5.70;90.50;;;;;;8366923;28;19925;-70
2023/02/27 20:38:48;;;;;;;;;;;5.70;90.70;;;;;;8361333;28;19925;-71
2023/02/27 20:42:50;;;;;;;;;;;5.60;90.40;;;;;;8366007;28;19943;-71
2023/02/27 20:46:52;;;;;;;;;;;5.50;90.90;;;;;;8374928;28;19928;-71
2023/02/27 20:50:53;;;;;;;;;;;5.40;90.30;;;;;;8364482;28;20380;-71
2023/02/27 20:54:55;;;;;;;;;;;5.30;90.20;;;;;;8364142;28;20357;-71
2023/02/27 20:58:58;;;;;;;;;;;5.30;90.30;;;;;;8363183;28;19931;-71
2023/02/27 21:03:00;;;;;;;;;;;5.10;90.20;;;;;;8366863;28;19925;-71
2023/02/27 21:07:02;;;;;;;;;;;5.10;90.30;;;;;;8369491;28;20016;-71
2023/02/27 21:11:07;;;;;;;;;;;5.00;90.00;;;;;;8368485;28;19968;-71
2023/02/27 21:15:09;;;;;;;;;;;4.90;89.50;;;;;;8365215;28;19931;-71
2023/02/27 21:19:11;;;;;;;;;;;4.80;89.80;;;;;;8375603;28;19932;-70
2023/02/27 21:23:12;;;;;;;;;;;4.80;89.50;;;;;;8362191;28;19980;-71
2023/02/27 21:27:18;;;;;;;;;;;4.70;89.50;;;;;;8357290;28;19966;-71
2023/02/27 21:31:21;;;;;;;;;;;4.60;89.40;;;;;;8373263;28;19924;-71
2023/02/27 21:35:23;;;;;;;;;;;4.50;89.30;;;;;;8366530;28;19928;-71
2023/02/27 21:39:26;;;;;;;;;;;4.40;89.50;;;;;;8364931;28;20358;-71
2023/02/27 21:43:28;;;;;;;;;;;4.40;89.30;;;;;;8344810;28;19937;-71
2023/02/27 21:47:30;;;;;;;;;;;4.30;89.00;;;;;;8363676;28;20372;-71
2023/02/27 21:51:31;;;;;;;;;;;4.20;89.10;;;;;;8361275;28;20031;-71
2023/02/27 21:55:41;;;;;;;;;;;4.10;88.90;;;;;;8359840;28;19939;-71
2023/02/27 21:59:42;;;;;;;;;;;4.00;89.20;;;;;;8364934;28;20302;-71
2023/02/27 22:03:45;;;;;;;;;;;3.90;88.80;;;;;;8377386;28;19939;-71
2023/02/27 22:07:48;;;;;;;;;;;3.90;88.70;;;;;;8385800;28;19942;-71
2023/02/27 22:11:49;;;;;;;;;;;3.80;89.00;;;;;;8389209;28;20364;-71
2023/02/27 22:15:52;;;;;;;;;;;3.70;89.10;;;;;;8386924;28;19928;-71
2023/02/27 22:19:54;;;;;;;;;;;3.60;89.30;;;;;;8388525;28;19929;-71
2023/02/27 22:23:56;;;;;;;;;;;3.60;89.00;;;;;;8385468;28;19947;-71
2023/02/27 22:27:58;;;;;;;;;;;3.50;88.90;;;;;;8386539;28;19924;-71
2023/02/27 22:32:00;;;;;;;;;;;3.50;89.10;;;;;;8392207;28;19924;-71
2023/02/27 22:36:09;;;;;;;;;;;3.40;90.00;;;;;;8386824;28;19928;-71
2023/02/27 22:40:11;;;;;;;;;;;3.40;90.00;;;;;;8380479;28;20277;-71
2023/02/27 22:44:13;;;;;;;;;;;3.30;90.00;;;;;;8366740;28;19924;-71
2023/02/27 22:48:15;;;;;;;;;;;3.30;90.20;;;;;;8391280;28;20403;-71
2023/02/27 22:52:17;;;;;;;;;;;3.20;90.00;;;;;;8381793;28;20022;-71
2023/02/27 22:56:18;;;;;;;;;;;3.20;89.70;;;;;;8394991;28;19925;-71
2023/02/27 23:00:20;;;;;;;;;;;3.10;89.80;;;;;;8396997;28;20320;-71
2023/02/27 23:04:22;;;;;;;;;;;3.00;90.00;;;;;;8396935;28;19935;-71
2023/02/27 23:08:23;;;;;;;;;;;3.00;89.60;;;;;;8393991;28;19925;-71
2023/02/27 23:12:25;;;;;;;;;;;3.00;89.30;;;;;;8379701;28;20007;-71
2023/02/27 23:16:28;;;;;;;;;;;2.90;88.70;;;;;;8396621;28;19925;-71
2023/02/27 23:20:29;;;;;;;;;;;2.90;89.50;;;;;;8395212;28;19928;-71
2023/02/27 23:24:31;;;;;;;;;;;2.80;89.80;;;;;;8388253;28;19932;-70
2023/02/27 23:28:33;;;;;;;;;;;2.70;90.00;;;;;;8393450;28;19970;-70
2023/02/27 23:32:42;;;;;;;;;;;2.60;88.80;;;;;;8394649;28;20015;-71
2023/02/27 23:36:44;;;;;;;;;;;2.50;89.10;;;;;;8394263;28;19925;-71
2023/02/27 23:40:45;;;;;;;;;;;2.50;89.70;;;;;;8372011;28;19932;-71
2023/02/27 23:44:47;;;;;;;;;;;2.50;89.30;;;;;;8378474;28;19931;-71
2023/02/27 23:48:48;;;;;;;;;;;2.40;89.80;;;;;;8368284;28;19967;-71
2023/02/27 23:52:51;;;;;;;;;;;2.40;89.50;;;;;;8389263;28;19972;-71
2023/02/27 23:56:53;;;;;;;;;;;2.30;89.70;;;;;;8388963;28;19928;-71
